createdAt,value
2019-04-06T00:01:17.051Z,100869.28
2019-04-06T00:03:52.014Z,100869.41
2019-04-06T00:06:24.353Z,100860.54
2019-04-06T00:08:57.217Z,100854.70
2019-04-06T00:11:30.010Z,100850.86
2019-04-06T00:14:02.945Z,100850.27
2019-04-06T00:16:35.848Z,100845.83
2019-04-06T00:19:08.782Z,100838.59
2019-04-06T00:21:41.147Z,100834.27
2019-04-06T00:24:14.424Z,100828.78
2019-04-06T00:26:47.145Z,100822.22
2019-04-06T00:29:19.669Z,100824.63
2019-04-06T00:32:00.430Z,100819.74
2019-04-06T00:34:33.189Z,100826.00
2019-04-06T00:37:05.559Z,100823.42
2019-04-06T00:39:38.291Z,100824.08
2019-04-06T00:42:10.692Z,100833.13
2019-04-06T00:44:43.274Z,100836.03
2019-04-06T00:47:15.717Z,100837.29
2019-04-06T00:49:48.459Z,100833.77
2019-04-06T00:52:20.821Z,100839.70
2019-04-06T00:54:53.337Z,100840.95
2019-04-06T00:57:25.769Z,100833.58
2019-04-06T00:59:58.071Z,100834.00
2019-04-06T01:02:30.880Z,100850.02
2019-04-06T01:05:03.486Z,100847.58
2019-04-06T01:07:36.076Z,100846.04
2019-04-06T01:10:08.840Z,100848.09
2019-04-06T01:12:41.342Z,100848.30
2019-04-06T01:15:13.865Z,100849.76
2019-04-06T01:17:46.355Z,100847.94
2019-04-06T01:20:20.142Z,100842.45
2019-04-06T01:22:53.825Z,100838.86
2019-04-06T01:25:26.203Z,100843.36
2019-04-06T01:27:59.117Z,100837.53
2019-04-06T01:30:31.542Z,100837.06
2019-04-06T01:33:04.058Z,100840.42
2019-04-06T01:35:36.984Z,100840.17
2019-04-06T01:38:09.498Z,100842.26
2019-04-06T01:40:41.948Z,100849.23
2019-04-06T01:43:14.476Z,100845.11
2019-04-06T01:45:46.811Z,100844.06
2019-04-06T01:48:19.377Z,100842.42
2019-04-06T01:50:51.735Z,100844.72
2019-04-06T01:53:24.168Z,100834.45
2019-04-06T01:55:56.697Z,100834.24
2019-04-06T01:58:29.076Z,100834.24
2019-04-06T02:01:18.942Z,100835.70
2019-04-06T02:03:51.425Z,100832.20
2019-04-06T02:06:24.288Z,100831.80
2019-04-06T02:08:56.666Z,100825.73
2019-04-06T02:11:29.163Z,100821.86
2019-04-06T02:14:01.613Z,100815.81
2019-04-06T02:16:34.531Z,100815.81
2019-04-06T02:19:06.996Z,100809.48
2019-04-06T02:21:39.547Z,100802.02
2019-04-06T02:24:12.140Z,100801.77
2019-04-06T02:26:44.715Z,100795.70
2019-04-06T02:29:17.129Z,100800.47
2019-04-06T02:32:14.362Z,100799.98
2019-04-06T02:35:04.558Z,100802.21
2019-04-06T02:37:54.589Z,100801.12
2019-04-06T02:40:44.471Z,100797.53
2019-04-06T02:43:19.978Z,100797.62
2019-04-06T02:45:52.979Z,100783.49
2019-04-06T02:48:25.465Z,100788.02
2019-04-06T02:50:57.953Z,100785.58
2019-04-06T02:53:30.449Z,100786.13
2019-04-06T02:56:02.884Z,100786.72
2019-04-06T02:58:35.453Z,100794.01
2019-04-06T03:01:07.965Z,100797.48
2019-04-06T03:03:41.078Z,100803.31
2019-04-06T03:06:13.699Z,100804.77
2019-04-06T03:08:46.101Z,100793.61
2019-04-06T03:11:18.588Z,100795.00
2019-04-06T03:13:51.179Z,100792.22
2019-04-06T03:16:23.621Z,100795.59
2019-04-06T03:18:55.926Z,100802.56
2019-04-06T03:21:29.901Z,100802.66
2019-04-06T03:24:02.284Z,100810.53
2019-04-06T03:26:34.773Z,100812.52
2019-04-06T03:29:07.337Z,100808.89
2019-04-06T03:31:40.258Z,100822.84
2019-04-06T03:34:13.171Z,100822.34
2019-04-06T03:36:45.633Z,100826.28
2019-04-06T03:39:18.160Z,100831.39
2019-04-06T03:41:50.714Z,100825.03
2019-04-06T03:44:23.257Z,100830.12
2019-04-06T03:46:55.727Z,100828.72
2019-04-06T03:49:28.361Z,100835.69
2019-04-06T03:52:01.036Z,100828.72
2019-04-06T03:54:33.339Z,100824.45
2019-04-06T03:57:15.258Z,100818.31
2019-04-06T03:59:39.932Z,100815.21
2019-04-06T04:02:12.325Z,100810.37
2019-04-06T04:04:44.828Z,100814.47
2019-04-06T04:07:17.720Z,100815.77
2019-04-06T04:09:50.186Z,100817.91
2019-04-06T04:12:22.675Z,100824.70
2019-04-06T04:14:55.171Z,100823.15
2019-04-06T04:17:27.581Z,100821.34
2019-04-06T04:20:01.056Z,100821.50
2019-04-06T04:22:35.173Z,100816.06
2019-04-06T04:25:08.219Z,100804.16
2019-04-06T04:27:42.377Z,100797.92
2019-04-06T04:30:15.761Z,100800.52
2019-04-06T04:32:49.082Z,100809.77
2019-04-06T04:35:21.631Z,100805.22
2019-04-06T04:37:54.024Z,100809.29
2019-04-06T04:40:26.703Z,100808.50
2019-04-06T04:42:59.482Z,100801.06
2019-04-06T04:45:31.930Z,100806.66
2019-04-06T04:48:04.335Z,100807.07
2019-04-06T04:50:37.070Z,100813.07
2019-04-06T04:53:09.609Z,100819.66
2019-04-06T04:55:42.390Z,100822.41
2019-04-06T04:58:15.021Z,100823.37
2019-04-06T05:00:47.556Z,100831.34
2019-04-06T05:03:20.143Z,100834.98
2019-04-06T05:05:52.733Z,100837.18
2019-04-06T05:08:25.081Z,100844.66
2019-04-06T05:10:57.656Z,100844.55
2019-04-06T05:13:30.083Z,100842.23
2019-04-06T05:16:19.886Z,100842.96
2019-04-06T05:18:52.458Z,100840.30
2019-04-06T05:21:25.865Z,100840.99
2019-04-06T05:23:58.297Z,100841.05
2019-04-06T05:26:37.387Z,100849.22
2019-04-06T05:29:04.798Z,100853.47
2019-04-06T05:31:37.361Z,100862.92
2019-04-06T05:34:09.811Z,100860.55
2019-04-06T05:36:42.310Z,100857.67
2019-04-06T05:39:14.738Z,100858.05
2019-04-06T05:41:50.444Z,100854.50
2019-04-06T05:44:22.473Z,100860.98
2019-04-06T05:46:55.001Z,100860.98
2019-04-06T05:49:27.831Z,100869.67
2019-04-06T05:52:00.771Z,100864.20
2019-04-06T05:54:33.656Z,100861.64
2019-04-06T05:57:06.150Z,100850.09
2019-04-06T05:59:40.939Z,100857.48
2019-04-06T06:02:12.955Z,100856.89
2019-04-06T06:05:06.242Z,100854.32
2019-04-06T06:07:38.802Z,100858.05
2019-04-06T06:10:11.522Z,100851.48
2019-04-06T06:12:44.731Z,100856.14
2019-04-06T06:15:17.415Z,100860.93
2019-04-06T06:17:50.407Z,100877.17
2019-04-06T06:20:25.805Z,100879.19
2019-04-06T06:22:58.282Z,100877.32
2019-04-06T06:25:30.778Z,100870.97
2019-04-06T06:28:13.750Z,100872.48
2019-04-06T06:30:37.708Z,100880.67
2019-04-06T06:33:10.257Z,100881.71
2019-04-06T06:35:43.273Z,100879.57
2019-04-06T06:38:15.981Z,100879.54
2019-04-06T06:40:48.443Z,100879.88
2019-04-06T06:43:21.252Z,100875.52
2019-04-06T06:45:53.591Z,100878.56
2019-04-06T06:48:26.396Z,100878.00
2019-04-06T06:50:58.843Z,100885.25
2019-04-06T06:53:31.437Z,100885.92
2019-04-06T06:56:04.004Z,100882.77
2019-04-06T06:58:36.529Z,100887.45
2019-04-06T07:01:09.158Z,100880.87
2019-04-06T07:03:41.584Z,100885.55
2019-04-06T07:06:14.592Z,100881.56
2019-04-06T07:08:47.720Z,100881.20
2019-04-06T07:11:20.273Z,100871.02
2019-04-06T07:13:53.747Z,100870.09
2019-04-06T07:16:26.221Z,100874.43
2019-04-06T07:18:59.093Z,100871.20
2019-04-06T07:21:31.944Z,100871.61
2019-04-06T07:24:06.826Z,100869.85
2019-04-06T07:26:41.138Z,100872.05
2019-04-06T07:29:13.690Z,100869.89
2019-04-06T07:31:46.238Z,100868.85
2019-04-06T07:34:18.716Z,100866.77
2019-04-06T07:36:51.112Z,100870.66
2019-04-06T07:39:24.619Z,100870.03
2019-04-06T07:41:57.157Z,100870.98
2019-04-06T07:44:29.583Z,100870.99
2019-04-06T07:47:03.451Z,100864.11
2019-04-06T07:49:35.920Z,100867.73
2019-04-06T07:52:08.628Z,100869.05
2019-04-06T07:54:41.499Z,100873.63
2019-04-06T07:57:13.894Z,100871.19
2019-04-06T07:59:46.391Z,100859.08
2019-04-06T08:02:18.793Z,100862.86
2019-04-06T08:04:51.312Z,100864.20
2019-04-06T08:07:23.806Z,100869.41
2019-04-06T08:09:56.351Z,100872.00
2019-04-06T08:12:28.814Z,100870.39
2019-04-06T08:15:01.365Z,100866.23
2019-04-06T08:17:34.053Z,100860.75
2019-04-06T08:20:07.502Z,100862.19
2019-04-06T08:22:40.232Z,100852.16
2019-04-06T08:25:12.916Z,100847.41
2019-04-06T08:27:45.547Z,100848.14
2019-04-06T08:30:18.388Z,100845.91
2019-04-06T08:32:51.007Z,100846.52
2019-04-06T08:35:25.946Z,100843.24
2019-04-06T08:37:57.650Z,100844.02
2019-04-06T08:40:30.219Z,100843.27
2019-04-06T08:43:02.773Z,100843.55
2019-04-06T08:45:35.400Z,100846.06
2019-04-06T08:48:07.944Z,100852.01
2019-04-06T08:50:40.492Z,100846.66
2019-04-06T08:53:13.018Z,100845.62
2019-04-06T08:55:46.958Z,100847.98
2019-04-06T08:58:20.131Z,100849.12
2019-04-06T09:00:52.668Z,100851.34
2019-04-06T09:03:25.005Z,100852.47
2019-04-06T09:05:57.773Z,100855.49
2019-04-06T09:08:30.266Z,100848.13
2019-04-06T09:11:03.123Z,100838.71
2019-04-06T09:13:35.808Z,100833.09
2019-04-06T09:16:08.389Z,100832.86
2019-04-06T09:18:40.885Z,100829.87
2019-04-06T09:21:13.333Z,100832.84
2019-04-06T09:23:45.881Z,100837.48
2019-04-06T09:26:18.500Z,100842.69
2019-04-06T09:28:50.862Z,100839.41
2019-04-06T09:31:23.616Z,100838.95
2019-04-06T09:33:56.103Z,100830.02
2019-04-06T09:36:28.608Z,100827.67
2019-04-06T09:39:00.981Z,100837.92
2019-04-06T09:41:33.429Z,100822.78
2019-04-06T09:44:07.417Z,100817.34
2019-04-06T09:47:01.945Z,100809.48
2019-04-06T09:49:51.045Z,100806.03
2019-04-06T09:52:33.402Z,100799.63
2019-04-06T09:55:15.290Z,100800.38
2019-04-06T09:58:12.618Z,100789.61
2019-04-06T10:01:06.430Z,100769.69
2019-04-06T10:03:45.700Z,100754.45
2019-04-06T10:06:35.410Z,100749.83
2019-04-06T10:09:34.806Z,100751.70
2019-04-06T10:12:32.157Z,100743.70
2019-04-06T10:15:27.115Z,100738.73
2019-04-06T10:18:33.030Z,100730.27
2019-04-06T10:21:23.636Z,100745.30
2019-04-06T10:24:14.563Z,100746.56
2019-04-06T10:27:08.600Z,100741.19
2019-04-06T10:29:59.711Z,100725.43
2019-04-06T10:32:49.884Z,100706.99
2019-04-06T10:35:50.307Z,100677.84
2019-04-06T10:38:33.127Z,100671.95
2019-04-06T10:41:27.083Z,100675.55
2019-04-06T10:44:18.337Z,100670.34
2019-04-06T10:47:09.298Z,100664.98
2019-04-06T10:49:57.316Z,100671.77
2019-04-06T10:52:57.230Z,100684.81
2019-04-06T10:55:47.328Z,100679.78
2019-04-06T10:58:36.823Z,100674.18
2019-04-06T11:01:28.387Z,100674.20
2019-04-06T11:04:22.793Z,100678.47
2019-04-06T11:07:05.478Z,100671.20
2019-04-06T11:09:52.108Z,100669.97
2019-04-06T11:12:38.447Z,100662.73
2019-04-06T11:15:29.872Z,100654.86
2019-04-06T11:18:21.608Z,100647.16
2019-04-06T11:21:12.569Z,100636.44
2019-04-06T11:24:04.749Z,100638.67
2019-04-06T11:26:58.957Z,100634.84
2019-04-06T11:29:53.648Z,100627.16
2019-04-06T11:32:59.716Z,100622.08
2019-04-06T11:35:56.041Z,100613.16
2019-04-06T11:38:59.359Z,100607.70
2019-04-06T11:42:05.503Z,100592.11
2019-04-06T11:45:02.323Z,100586.63
2019-04-06T11:47:56.645Z,100578.70
2019-04-06T11:50:51.735Z,100576.09
2019-04-06T11:53:50.978Z,100591.11
2019-04-06T11:56:40.610Z,100587.44
2019-04-06T11:59:30.295Z,100586.44
2019-04-06T12:02:25.342Z,100571.25
2019-04-06T12:05:17.109Z,100573.88
2019-04-06T12:08:05.540Z,100574.47
2019-04-06T12:10:59.751Z,100569.41
2019-04-06T12:13:53.872Z,100566.37
2019-04-06T12:16:41.332Z,100551.12
2019-04-06T12:19:35.321Z,100552.28
2019-04-06T12:22:20.959Z,100559.37
2019-04-06T12:25:12.214Z,100555.70
2019-04-06T12:28:08.853Z,100539.28
2019-04-06T12:31:05.986Z,100523.91
2019-04-06T12:33:57.133Z,100521.89
2019-04-06T12:36:44.225Z,100517.44
2019-04-06T12:39:53.445Z,100507.92
2019-04-06T12:42:58.499Z,100494.77
2019-04-06T12:45:48.356Z,100492.78
2019-04-06T12:48:42.289Z,100487.13
2019-04-06T12:51:21.341Z,100475.80
2019-04-06T12:54:09.591Z,100484.75
2019-04-06T12:57:11.241Z,100491.63
2019-04-06T13:00:02.788Z,100498.12
2019-04-06T13:02:56.083Z,100489.42
2019-04-06T13:05:46.081Z,100472.78
2019-04-06T13:08:26.615Z,100461.67
2019-04-06T13:11:19.677Z,100452.77
2019-04-06T13:14:20.323Z,100447.08
2019-04-06T13:17:05.729Z,100442.62
2019-04-06T13:19:56.004Z,100431.71
2019-04-06T13:22:45.912Z,100431.11
2019-04-06T13:25:37.022Z,100428.68
2019-04-06T13:28:21.952Z,100434.14
2019-04-06T13:31:18.953Z,100430.69
2019-04-06T13:34:18.663Z,100438.20
2019-04-06T13:37:10.330Z,100456.61
2019-04-06T13:40:07.938Z,100454.58
2019-04-06T13:43:01.655Z,100448.30
2019-04-06T13:45:45.851Z,100451.89
2019-04-06T13:48:38.789Z,100448.85
2019-04-06T13:51:28.070Z,100452.89
2019-04-06T13:54:17.291Z,100449.42
2019-04-06T13:57:01.543Z,100447.75
2019-04-06T13:59:51.072Z,100451.77
2019-04-06T14:02:34.867Z,100445.80
2019-04-06T14:05:26.146Z,100442.31
2019-04-06T14:08:26.090Z,100442.84
2019-04-06T14:11:15.662Z,100444.36
2019-04-06T14:14:12.757Z,100441.20
2019-04-06T14:17:07.532Z,100444.53
2019-04-06T14:19:57.701Z,100454.94
2019-04-06T14:22:51.520Z,100465.58
2019-04-06T14:25:54.736Z,100469.97
2019-04-06T14:28:51.911Z,100467.30
2019-04-06T14:31:48.515Z,100458.96
2019-04-06T14:34:39.608Z,100464.34
2019-04-06T14:37:21.965Z,100464.84
2019-04-06T14:40:28.257Z,100467.72
2019-04-06T14:43:11.483Z,100477.28
2019-04-06T14:46:03.087Z,100476.75
2019-04-06T14:48:51.149Z,100473.97
2019-04-06T14:51:48.622Z,100483.69
2019-04-06T14:54:38.986Z,100488.97
2019-04-06T14:57:21.464Z,100488.01
2019-04-06T15:00:12.615Z,100484.67
2019-04-06T15:03:14.492Z,100485.98
2019-04-06T15:06:11.628Z,100482.61
2019-04-06T15:09:12.490Z,100474.64
2019-04-06T15:11:58.091Z,100477.94
2019-04-06T15:14:40.671Z,100470.98
2019-04-06T15:17:34.644Z,100468.06
2019-04-06T15:20:29.159Z,100465.11
2019-04-06T15:23:16.972Z,100473.45
2019-04-06T15:26:00.802Z,100489.69
2019-04-06T15:28:50.433Z,100493.70
2019-04-06T15:31:47.761Z,100493.11
2019-04-06T15:34:23.465Z,100476.17
2019-04-06T15:37:10.435Z,100467.67
2019-04-06T15:40:02.220Z,100432.75
2019-04-06T15:42:43.225Z,100422.84
2019-04-06T15:45:42.442Z,100451.91
2019-04-06T15:48:41.213Z,100477.41
2019-04-06T15:51:31.679Z,100463.05
2019-04-06T15:54:19.832Z,100445.95
2019-04-06T15:57:01.527Z,100445.34
2019-04-06T15:59:56.417Z,100453.56
2019-04-06T16:02:56.172Z,100465.65
2019-04-06T16:05:50.140Z,100468.24
2019-04-06T16:08:43.404Z,100470.84
2019-04-06T16:11:38.077Z,100480.91
2019-04-06T16:14:27.472Z,100483.72
2019-04-06T16:17:24.109Z,100482.70
2019-04-06T16:20:15.232Z,100481.30
2019-04-06T16:23:09.822Z,100477.07
2019-04-06T16:25:51.974Z,100477.48
2019-04-06T16:28:43.058Z,100478.31
2019-04-06T16:31:37.724Z,100475.28
2019-04-06T16:34:32.147Z,100479.28
2019-04-06T16:37:17.493Z,100475.86
2019-04-06T16:39:58.139Z,100475.28
2019-04-06T16:42:52.590Z,100478.53
2019-04-06T16:45:42.607Z,100485.80
2019-04-06T16:48:34.830Z,100479.33
2019-04-06T16:51:32.756Z,100485.92
2019-04-06T16:54:37.124Z,100486.31
2019-04-06T16:57:21.138Z,100478.61
2019-04-06T17:00:22.308Z,100477.81
2019-04-06T17:03:06.692Z,100477.59
2019-04-06T17:05:57.293Z,100480.02
2019-04-06T17:08:57.977Z,100485.87
2019-04-06T17:11:52.589Z,100481.07
2019-04-06T17:14:53.234Z,100486.48
2019-04-06T17:17:43.412Z,100496.55
2019-04-06T17:20:49.972Z,100506.02
2019-04-06T17:23:40.192Z,100500.00
2019-04-06T17:26:37.451Z,100499.42
2019-04-06T17:29:32.263Z,100497.79
2019-04-06T17:32:15.225Z,100514.45
2019-04-06T17:35:05.029Z,100508.22
2019-04-06T17:38:08.927Z,100517.94
2019-04-06T17:40:59.848Z,100520.53
2019-04-06T17:44:09.195Z,100511.86
2019-04-06T17:46:58.829Z,100517.72
2019-04-06T17:49:48.460Z,100520.75
2019-04-06T17:52:38.432Z,100518.16
2019-04-06T17:55:39.112Z,100513.11
2019-04-06T17:58:35.965Z,100515.13
2019-04-06T18:01:37.433Z,100528.37
2019-04-06T18:04:27.544Z,100531.41
2019-04-06T18:07:17.140Z,100524.98
2019-04-06T18:09:59.607Z,100518.16
2019-04-06T18:12:44.091Z,100522.73
2019-04-06T18:15:17.119Z,100530.83
2019-04-06T18:17:50.430Z,100521.20
2019-04-06T18:20:23.234Z,100517.39
2019-04-06T18:22:55.869Z,100510.35
2019-04-06T18:25:28.285Z,100503.92
2019-04-06T18:28:00.815Z,100499.09
2019-04-06T18:30:33.750Z,100491.84
2019-04-06T18:33:17.409Z,100483.78
2019-04-06T18:35:49.821Z,100497.63
2019-04-06T18:38:44.556Z,100487.94
2019-04-06T18:41:17.266Z,100484.30
2019-04-06T18:43:49.802Z,100487.72
2019-04-06T18:46:22.569Z,100496.00
2019-04-06T18:48:55.505Z,100497.63
2019-04-06T18:51:28.634Z,100504.72
2019-04-06T18:54:01.451Z,100500.28
2019-04-06T18:56:34.640Z,100503.09
2019-04-06T18:59:07.975Z,100504.31
2019-04-06T19:01:40.486Z,100503.26
2019-04-06T19:04:13.194Z,100505.84
2019-04-06T19:06:45.669Z,100511.48
2019-04-06T19:09:23.044Z,100511.86
2019-04-06T19:11:55.983Z,100508.03
2019-04-06T19:14:26.974Z,100498.09
2019-04-06T19:16:59.457Z,100503.88
2019-04-06T19:19:32.089Z,100508.88
2019-04-06T19:22:04.523Z,100500.20
2019-04-06T19:24:37.034Z,100506.41
2019-04-06T19:27:09.924Z,100503.38
2019-04-06T19:29:42.751Z,100504.56
2019-04-06T19:32:15.800Z,100506.13
2019-04-06T19:34:48.473Z,100510.73
2019-04-06T19:37:21.564Z,100522.21
2019-04-06T19:39:54.242Z,100521.38
2019-04-06T19:42:26.806Z,100526.84
2019-04-06T19:44:59.597Z,100512.20
2019-04-06T19:47:33.249Z,100508.55
2019-04-06T19:50:06.615Z,100519.17
2019-04-06T19:52:39.738Z,100535.00
2019-04-06T19:55:12.731Z,100552.48
2019-04-06T19:57:45.281Z,100544.05
2019-04-06T20:00:19.680Z,100546.19
2019-04-06T20:02:52.068Z,100561.22
2019-04-06T20:05:25.132Z,100558.78
2019-04-06T20:07:57.906Z,100559.74
2019-04-06T20:10:30.756Z,100555.91
2019-04-06T20:13:07.265Z,100564.34
2019-04-06T20:15:41.043Z,100559.97
2019-04-06T20:18:13.618Z,100552.36
2019-04-06T20:20:46.304Z,100553.98
2019-04-06T20:23:19.816Z,100550.80
2019-04-06T20:25:52.372Z,100555.23
2019-04-06T20:28:25.114Z,100563.91
2019-04-06T20:30:58.764Z,100573.97
2019-04-06T20:33:31.343Z,100586.63
2019-04-06T20:36:03.761Z,100586.41
2019-04-06T20:38:36.724Z,100588.55
2019-04-06T20:41:09.802Z,100600.19
2019-04-06T20:43:43.127Z,100605.74
2019-04-06T20:46:16.138Z,100615.94
2019-04-06T20:48:49.473Z,100612.10
2019-04-06T20:51:22.619Z,100601.35
2019-04-06T20:53:55.212Z,100594.25
2019-04-06T20:56:28.372Z,100583.16
2019-04-06T20:59:01.501Z,100586.20
2019-04-06T21:01:33.980Z,100601.51
2019-04-06T21:04:06.851Z,100592.47
2019-04-06T21:06:40.078Z,100580.86
2019-04-06T21:09:15.036Z,100577.09
2019-04-06T21:11:47.956Z,100560.41
2019-04-06T21:14:20.586Z,100548.20
2019-04-06T21:16:53.426Z,100545.04
2019-04-06T21:19:26.075Z,100542.00
2019-04-06T21:21:59.019Z,100531.70
2019-04-06T21:24:32.216Z,100542.13
2019-04-06T21:27:05.230Z,100552.29
2019-04-06T21:29:38.233Z,100549.79
2019-04-06T21:32:10.958Z,100545.82
2019-04-06T21:34:45.730Z,100543.33
2019-04-06T21:37:18.165Z,100554.63
2019-04-06T21:39:50.730Z,100548.26
2019-04-06T21:42:23.393Z,100542.34
2019-04-06T21:44:57.259Z,100536.07
2019-04-06T21:47:29.690Z,100531.63
2019-04-06T21:50:02.187Z,100531.02
2019-04-06T21:52:35.160Z,100527.64
2019-04-06T21:55:10.028Z,100525.78
2019-04-06T21:57:43.149Z,100535.17
2019-04-06T22:00:24.291Z,100533.09
2019-04-06T22:02:57.017Z,100539.23
2019-04-06T22:05:29.615Z,100545.59
2019-04-06T22:08:04.164Z,100546.54
2019-04-06T22:10:36.868Z,100546.92
2019-04-06T22:13:13.116Z,100542.02
2019-04-06T22:15:46.249Z,100533.97
2019-04-06T22:18:19.297Z,100523.08
2019-04-06T22:20:51.762Z,100525.09
2019-04-06T22:23:25.237Z,100529.30
2019-04-06T22:25:57.818Z,100520.65
2019-04-06T22:28:30.362Z,100502.39
2019-04-06T22:31:03.125Z,100495.73
2019-04-06T22:33:35.600Z,100486.25
2019-04-06T22:36:08.868Z,100485.23
2019-04-06T22:38:41.956Z,100483.02
2019-04-06T22:41:14.571Z,100485.95
2019-04-06T22:43:47.046Z,100473.47
2019-04-06T22:46:20.193Z,100476.05
2019-04-06T22:48:52.697Z,100474.64
2019-04-06T22:51:25.366Z,100462.92
2019-04-06T22:53:57.772Z,100457.30
2019-04-06T22:56:31.021Z,100447.16
2019-04-06T22:59:03.548Z,100434.74
2019-04-06T23:01:39.033Z,100430.88
2019-04-06T23:04:28.723Z,100429.12
2019-04-06T23:07:09.761Z,100431.70
2019-04-06T23:09:42.887Z,100428.80
2019-04-06T23:12:15.778Z,100425.53
2019-04-06T23:14:48.868Z,100425.53
2019-04-06T23:17:22.802Z,100419.09
2019-04-06T23:19:55.408Z,100424.93
2019-04-06T23:22:28.558Z,100417.33
2019-04-06T23:25:01.919Z,100414.52
2019-04-06T23:27:35.341Z,100411.48
2019-04-06T23:30:10.458Z,100416.05
2019-04-06T23:32:43.560Z,100412.82
2019-04-06T23:35:16.179Z,100412.95
2019-04-06T23:37:49.199Z,100410.67
2019-04-06T23:40:22.916Z,100402.97
2019-04-06T23:42:55.891Z,100405.55
2019-04-06T23:45:29.186Z,100407.79
2019-04-06T23:48:02.957Z,100410.83
2019-04-06T23:50:35.995Z,100412.65
2019-04-06T23:53:09.093Z,100408.89
2019-04-06T23:55:42.153Z,100411.55
2019-04-06T23:58:15.221Z,100407.78
